Hovedside
METAR-TAF:

METAR-TAF

Lufthavner :

Philip S. W. Goldson internasjonale lufthavn

Belize City, Belize

breddegrad: 17-32N, lengdegrad: 088-18W, høyde over havet: 5 m

Gjeldene værobservasjon

Denne rapporten ble laget for 17 minutter siden, klokken 12:00 UTC
Vind 4 kt fra Vest-nordvest
Temperatur 21°C
Luftfuktighet 88%
Trykk 1017 hPa
Sikt 10 km eller mer
Brutte skyer i en høyde av 4000 ft

METAR: MZBZ 181200Z 29004KT 9999 BKN040 21/19 A3005 Q1017 NOSIG

Tid: 06:17 (12:17 UTC)

Varsel

Denne rapporten ble laget for 1 time og 17 minutter siden, klokken 11:00 UTC
Varsel gyldig fra 18. klokken 12 UTC til 19. klokken 12 UTC
Vind 7 kt fra Nordvest
Sikt 10 km eller mer
Få skyer i en høyde av 2000 ft
Brutte skyer i en høyde av 4500 ft
Blir
fra 19. klokken 00 UTC til 19. klokken 02 UTC
Vind 3 kt fra skiftende retning
Spredte skyer i en høyde av 1000 ft

TAF: MZBZ 181100Z 1812/1912 31007KT 9999 FEW020 BKN045 BECMG 1900/1902 VRB03KT SCT010

Værobservasjoner og værvarsel for over 4000 flyplasser (METAR- og TAF-rapporter).

Tilgjengelige stasjoner er representert av de røde og gule prikkene på kartet.

Hold musepekeren over prikken for å se navnet på stasjonen.

Klikk så for å se værobservasjoner og -varsler.

For å forandre kartet kan du klikke på den grønne knappen med svart kryss for å zoome inn, på den grønne knappen med strek for å zoome ut, eller på de grønne pilene for å se tilstøtende kart.


METAR-TAF: